Timeline UpdatesTrip UpdatesNews PostsPvt PostsTravel TipsAdmin PostsConv PostsFollowed PostsChat RequestsBlog PostsPNR Posts

Disclaimer
Search
 
 
Thu Jul 31, 2014 12:56:54 ISTHomeTrainsΣChainsAtlasPNRForumGalleryNewsFAQTripsMembersLoginFeedback
No Recent News for this Train
Other Trains in the News **new
Latest...
Tr.No.17406 Adilabad -Tirupati Express is cancelled o­n 27.04.2014.
Sat Apr 26, 2014 (03:22PM)
⇐ Return Journey: Train# 17405

17406/Krishna Express

Jul 04 2013 (3:43PM)
Change Departure Station:
Change Arrival Station:
Post a Train Travel TipPost a Train Travel Tip **new
Post a Comment/Question/Picture/VideoPost a Comment/Question/Picture/Video
Inaugural Run
Wed Oct 02, 1974
Pantry/Catering
✕ NO Pantry Car
✓ Catering Avbl
Loco/Rake Reversals
MUE/Mudkhed Junction (4); SC/Secunderabad Junction (10);
RSA - Rake Sharing
17405/17406/17409/17410 has RSA.
Rake/Coach Composition
Loco-SLR-GS-D6-D5-D4-D3-D2-D1-S2-S1-C1-B1-GS-GS-GS-GS-GS-SLR
Loco
ADB - SC: KZJ WDG-3A. SC - TPTY: LGD WAP4/7.
News    PNR    Forum    Time-Table    Availability    Fare Chart    Map    Arr/Dep History    Trips    Gallery    ΣChains    X/O    Timeline    
Travel Time: 22h 0m    55 halts    Distance: 1006 km    Avg Speed: 45 km/hr
Type: Mail/Express
Zone: SCR/South Central
Departs @ 23:25 (Avg 6m late)
Platform# 1
SMTWTFS
Bhokar/BOKR 
Arrives @ 21:25 +1 night (Avg 21m late)
Platform# 1
SMTWTFS
Tirupati Main/TPTY 

55 halts. 157 intermediate Stations between Bhokar and Tirupati Main

Show ALL intermediate Stations  Show Old Time-Table

#CodeStation NameX/OArrivesAvgDepartsAvgHaltPFDay#KmSpeedElevZoneAddress
1ADBAdilabad (3)  -20:45+111-141.8-248mSCRAdilabad, Telangana
2KNVTKinwat (2)X  21:03+3221:04+341m11-96.522319mSCRKinwat, Maharashtra
3BHBKBodhadi Bujrug  21:44+1021:45+101m--1-81.862357mSCRKinwat, Maharashtra
4SHSKSahasrakund  22:14+1422:15+141m--1-51.767402mSCRNanded, Maharashtra
5HEMHimayatnagar  22:29+1722:30+171m--1-36.140398mSCRNanded, Maharashtra
6BOKR»Bhokar»  23:24+423:25+61m110.032460mSCRBhokar, Maharashtra
7MUEMudkhed Junction (4)O↵¶00:05-200:15+910m2221.234378mSCRMudkhed, Maharashtra
8UMRIUmri (1)X  00:49+500:50+91m1240.665381mSCRHuzur Sahib Nanded, Maharashtra
9DABDharmabad (2)  01:17+1701:18+221m1270.135354mSCRDegaon, Maharashtra
10BSXBasar (2)X  01:35+1701:37+212m1279.953358mSCRDist Adilabad, Telangana
11NZBNizamabad (3)  02:10+2402:15+295m12109.369384mSCRNizamabad, Telangana
12KMCKamareddi (3)O  03:00+3403:01+351m12161.267528mSCRNizamabad Dist., Telangana
13AKEAkanapetO  03:24+3503:25+351m12186.993566mSCRNizamabad Dist, Telangana
14MZLMirzapalli (1)  03:32+3603:33+361m12197.743530mSCRMedak Dist., Telangana
15BMOBolarum (3)X  04:55+1104:56+111m12256.327597mSCRSecunderabad, Telangana
16MJFMalkajgiri (3)X  05:19+405:20+41m22266.58535mSCRSecunderabad, Telangana
17SCSecunderabad Junction (10)X05:45+1506:05+1820m62269.943539mSCRSecunderabad 500003, Telangana
18MLYMoula Ali (2)X  06:13+2906:14+301m12275.757520mSCRSecunderabad, Telangana
19CHZCharlapalli (2)  06:21+3506:22+351m22282.376523mSCRRangareddy Dist., Telangana
20BGBhongir (3)X  06:49+3906:50+401m22316.397455mSCRNalgonda Dist., Telangana
21RAGRaigir (2)X  06:54+2706:55+271m22322.873415mSCRNalgonda, Telangana
22ALERAler (2)X  07:08+4407:09+471m22338.672366mSCRNalgonda Dist., Telangana
23PBPPembarti (2)  07:17+5207:18+521m22348.241382mSCRWarangal Dist., Telangana
24ZNJangaon (2)  07:26+5007:27+501m22353.675380mSCRWarangal Dist., Telangana
25RGPRaghunathpalli (2)  07:36+4907:37+491m22365.084357mSCRWarangal Dist., Telangana
26GNPGhanpur (2)  07:49+5307:50+551m22381.743344mSCRWarangal Dist. / Enq Ph : 08711 220231, Telangana
27KZJKazipet Junction (3)X  08:18+4408:20+492m22401.651292mSCRWarangal Dist., Telangana
28WLWarangal (3)  08:32+5908:34+592m12411.774271mSCRWarangal., Telangana
29NKDNekonda (2)  08:58+1:0508:59+1:051m12441.477236mSCRWarangal Dist., Telangana
30KDMKesamudram (2)X  09:11+1:0909:12+1:091m12456.981223mSCRWarangal Dist., Telangana
31MABDMahbubabad (2)  09:23+1:1309:24+1:131m12471.8107200mSCRWarangal Dist., Telangana
32GLAGarla (2)X  09:35+4409:36+441m12491.518156mSCRKhammam Dist., Telangana
33DKJDornakal Junction (3)  09:52+1:0609:54+1:052m22496.392153mSCRWarangal District, Telangana
34KMTKhammam (2)X  10:09+4210:11+422m12519.388118mSCRKhammam 507001, Telangana
35BKLBona Kalu (2)  10:30+5710:31+581m12547.28597mSCRKhammam Dist., Telangana
36MDRMadhira (2)  10:43+5410:44+541m12564.18461mSCRKhammam Dist., Telangana
37YPErrupalem (2)X  10:55+4410:56+441m--2579.51857mSCRKhammam Dist., Telangana
38KIKondapalli (2)O  12:18+3312:20+332m22604.12735mSCRKondapalli, Andhra Pradesh
39BZAVijayawada Junction (10)X  12:55+2813:15+2520m102619.74524mSCRVijayawada 520001, Andhra Pradesh
40PVDPeddavadiapudi (3)  13:31+3213:32+331m--2631.56520mSCRKL University to NH 5, Andhra Pradesh
41DIGDuggirala (3)X  13:41+3513:42+351m--2641.23616mSCRDuggirala, Andhra Pradesh
42TELTenali Junction (5)  13:58+3014:00+322m32650.97716mSCRTel: 08644-227834, Andhra Pradesh
43TSRTsunduru (3)  14:09+3714:10+381m--2662.55712mSCRTsunduru, Andhra Pradesh
44NDONidubrolu (3)  14:21+4114:22+421m--2673.0699mSCRNidubrolu, Andhra Pradesh
45BPPBapatla (3)X  14:40+3914:41+411m--2693.58210mSCRBapatla, Andhra Pradesh
46CLXChirala (4)  14:52+5314:53+541m--2708.6598mSCRChirala, Andhra Pradesh
47VTMVetapalem (3)X  15:01+5615:02+571m--2716.5758mSCRVetapalem, Andhra Pradesh
48CJMChinnaganjam (3)  15:12+5815:13+1:001m--2728.9779mSCRChinna Ganjam, Andhra Pradesh
49ANBAmmanabrolu (3)X  15:24+1:0315:25+1:051m--2743.04316mSCRAmmanabrolu, Andhra Pradesh
50OGLOngole (3)  15:46+5315:48+572m32757.97012mSCROngole, Andhra Pradesh
51TNRTanguturu (2)  16:04+1:0916:05+1:091m--2776.67210mSCRTanguturu, Andhra Pradesh
52SKMSingarayakonda (3)X  16:13+1:0516:14+1:061m32786.29926mSCRSingarayakonda, Andhra Pradesh
53KVZKavali (4)X  16:37+1:0416:39+1:052m22823.98221mSCRKavali, Andhra Pradesh
54BTTRBitragunta (2)X  16:51+1:0116:52+1:021m22840.44515mSCRBitragunta, Andhra Pradesh
55NLRNellore (4)  17:38+2417:40+242m32874.74821mSCRNellore, Andhra Pradesh
56VDEVedayapalem (2)XO  17:49+3617:50+361m22882.02427mSCRNellore, Andhra Pradesh
57GDRGudur Junction (3)X  19:08+2919:10+292m32913.26819mSCRGudur, Andhra Pradesh
58VDDVendodu (2)X  19:27+5819:28+591m--2932.48355mSCRNellore, Andhra Pradesh
59VKIVenkatagiri (3)  19:40+1:0319:41+1:051m22948.97377mSCRNellore District, Andhra Pradesh
60KHTSri Kalahasti (2)X  20:01+5720:02+581m12973.44268mSCRChittoor District, Andhra Pradesh
61RURenigunta Junction (5)  20:35+1:0320:40+1:015m--2996.613113mSCRChittoor District, Andhra Pradesh
62TPTY•Tirupati Main (5)•  21:25+21-121006.5-150mSCRChittoor Distt, Andhra Pradesh
Scroll to Top
Scroll to Bottom